createdAt,value
2019-04-30T00:00:00.434Z,72.85
2019-04-30T00:02:38.346Z,72.58
2019-04-30T00:05:00.870Z,73.61
2019-04-30T00:07:29.364Z,72.75
2019-04-30T00:09:57.811Z,72.38
2019-04-30T00:12:26.570Z,73.01
2019-04-30T00:14:55.156Z,73.60
2019-04-30T00:17:25.555Z,74.04
2019-04-30T00:19:59.800Z,72.45
2019-04-30T00:22:33.527Z,72.17
2019-04-30T00:24:55.801Z,72.72
2019-04-30T00:27:26.373Z,72.71
2019-04-30T00:29:55.772Z,72.91
2019-04-30T00:32:25.793Z,73.89
2019-04-30T00:34:55.638Z,73.89
2019-04-30T00:37:25.437Z,73.73
2019-04-30T00:39:56.739Z,74.39
2019-04-30T00:42:28.656Z,74.49
2019-04-30T00:44:55.442Z,74.36
2019-04-30T00:47:25.778Z,73.66
2019-04-30T00:49:58.911Z,74.84
2019-04-30T00:52:25.299Z,74.31
2019-04-30T00:54:55.332Z,73.32
2019-04-30T00:57:26.344Z,73.77
2019-04-30T00:59:54.910Z,74.13
2019-04-30T01:02:40.158Z,73.25
2019-04-30T01:05:10.977Z,73.67
2019-04-30T01:07:40.067Z,73.34
2019-04-30T01:10:11.587Z,73.26
2019-04-30T01:12:46.874Z,73.33
2019-04-30T01:15:14.548Z,73.07
2019-04-30T01:17:45.256Z,73.09
2019-04-30T01:20:11.915Z,73.51
2019-04-30T01:22:40.443Z,74.01
2019-04-30T01:25:13.526Z,74.48
2019-04-30T01:27:45.603Z,73.67
2019-04-30T01:30:13.357Z,74.03
2019-04-30T01:32:40.850Z,73.31
2019-04-30T01:35:09.359Z,72.93
2019-04-30T01:37:38.668Z,72.61
2019-04-30T01:40:13.483Z,72.16
2019-04-30T01:42:42.824Z,72.05
2019-04-30T01:45:09.167Z,71.87
2019-04-30T01:47:37.559Z,72.17
2019-04-30T01:50:09.246Z,72.34
2019-04-30T01:52:52.609Z,72.85
2019-04-30T01:55:23.912Z,72.48
2019-04-30T01:57:59.917Z,71.57
2019-04-30T02:00:35.804Z,71.95
2019-04-30T02:03:04.279Z,71.49
2019-04-30T02:05:32.709Z,71.29
2019-04-30T02:08:01.260Z,71.28
2019-04-30T02:10:29.671Z,71.23
2019-04-30T02:12:59.086Z,71.18
2019-04-30T02:15:29.171Z,72.54
2019-04-30T02:17:58.767Z,71.38
2019-04-30T02:20:28.753Z,71.48
2019-04-30T02:22:58.637Z,71.76
2019-04-30T02:25:29.562Z,70.97
2019-04-30T02:27:59.171Z,70.66
2019-04-30T02:30:30.469Z,70.49
2019-04-30T02:33:00.556Z,70.10
2019-04-30T02:35:32.526Z,70.14
2019-04-30T02:38:19.861Z,70.39
2019-04-30T02:40:49.819Z,70.05
2019-04-30T02:43:20.373Z,70.14
2019-04-30T02:45:51.413Z,70.93
2019-04-30T02:48:23.134Z,70.28
2019-04-30T02:50:53.718Z,70.02
2019-04-30T02:53:50.203Z,70.65
2019-04-30T02:56:20.217Z,70.37
2019-04-30T02:58:50.459Z,70.16
2019-04-30T03:01:20.273Z,69.61
2019-04-30T03:03:50.043Z,69.45
2019-04-30T03:06:20.428Z,68.95
2019-04-30T03:08:51.014Z,69.22
2019-04-30T03:11:20.618Z,69.52
2019-04-30T03:13:49.768Z,69.33
2019-04-30T03:16:20.851Z,68.70
2019-04-30T03:18:53.885Z,68.55
2019-04-30T03:21:40.515Z,68.66
2019-04-30T03:24:10.722Z,68.80
2019-04-30T03:26:40.028Z,68.63
2019-04-30T03:29:11.190Z,68.69
2019-04-30T03:31:44.278Z,68.70
2019-04-30T03:34:16.797Z,68.66
2019-04-30T03:36:40.864Z,68.78
2019-04-30T03:39:10.769Z,68.70
2019-04-30T03:41:41.409Z,68.77
2019-04-30T03:44:20.971Z,68.54
2019-04-30T03:46:40.413Z,68.71
2019-04-30T03:49:13.384Z,68.74
2019-04-30T03:51:42.142Z,69.04
2019-04-30T03:54:10.851Z,68.93
2019-04-30T03:56:40.640Z,69.23
2019-04-30T03:59:10.503Z,69.56
2019-04-30T04:01:59.572Z,69.36
2019-04-30T04:04:52.098Z,69.63
2019-04-30T04:07:25.516Z,70.19
2019-04-30T04:09:59.774Z,69.74
2019-04-30T04:12:30.446Z,69.23
2019-04-30T04:15:03.386Z,69.76
2019-04-30T04:17:31.498Z,69.79
2019-04-30T04:19:59.866Z,70.14
2019-04-30T04:22:30.661Z,69.71
2019-04-30T04:25:00.085Z,69.81
2019-04-30T04:27:30.146Z,69.67
2019-04-30T04:30:01.208Z,69.65
2019-04-30T04:32:30.834Z,69.16
2019-04-30T04:35:00.152Z,69.38
2019-04-30T04:37:30.657Z,69.08
2019-04-30T04:39:59.675Z,69.17
2019-04-30T04:42:32.504Z,69.14
2019-04-30T04:44:59.551Z,68.81
2019-04-30T04:47:30.836Z,69.16
2019-04-30T04:50:01.416Z,69.07
2019-04-30T04:52:31.746Z,68.67
2019-04-30T04:55:00.682Z,67.99
2019-04-30T04:57:30.448Z,67.99
2019-04-30T05:00:06.560Z,67.90
2019-04-30T05:02:33.908Z,67.95
2019-04-30T05:05:02.324Z,67.42
2019-04-30T05:07:30.736Z,67.73
2019-04-30T05:10:00.920Z,67.12
2019-04-30T05:12:29.864Z,66.95
2019-04-30T05:14:59.751Z,66.68
2019-04-30T05:17:31.676Z,66.74
2019-04-30T05:19:58.924Z,66.13
2019-04-30T05:22:29.207Z,65.62
2019-04-30T05:24:58.823Z,65.42
2019-04-30T05:27:27.491Z,65.31
2019-04-30T05:29:56.203Z,65.27
2019-04-30T05:32:24.643Z,65.50
2019-04-30T05:34:53.444Z,64.92
2019-04-30T05:37:22.542Z,64.68
2019-04-30T05:39:51.062Z,64.76
2019-04-30T05:42:20.840Z,65.04
2019-04-30T05:44:49.830Z,64.78
2019-04-30T05:47:19.624Z,65.13
2019-04-30T05:49:48.890Z,64.97
2019-04-30T05:52:19.880Z,65.86
2019-04-30T05:54:48.937Z,65.71
2019-04-30T05:57:19.613Z,65.26
2019-04-30T05:59:48.710Z,65.23
2019-04-30T06:02:19.336Z,65.12
2019-04-30T06:04:48.998Z,65.23
2019-04-30T06:07:18.995Z,65.26
2019-04-30T06:09:50.217Z,65.53
2019-04-30T06:12:39.295Z,65.46
2019-04-30T06:15:11.779Z,65.58
2019-04-30T06:17:41.439Z,65.35
2019-04-30T06:20:17.805Z,65.53
2019-04-30T06:22:40.634Z,65.65
2019-04-30T06:25:10.790Z,65.87
2019-04-30T06:27:39.622Z,65.83
2019-04-30T06:30:09.705Z,65.89
2019-04-30T06:32:39.533Z,65.54
2019-04-30T06:35:09.248Z,64.79
2019-04-30T06:37:39.048Z,64.79
2019-04-30T06:40:09.445Z,64.82
2019-04-30T06:42:39.403Z,64.08
2019-04-30T06:45:09.174Z,63.70
2019-04-30T06:47:38.902Z,63.61
2019-04-30T06:50:09.723Z,63.38
2019-04-30T06:52:39.020Z,63.33
2019-04-30T06:55:09.456Z,63.54
2019-04-30T06:57:38.420Z,63.43
2019-04-30T07:00:09.833Z,63.54
2019-04-30T07:02:39.291Z,63.11
2019-04-30T07:05:10.178Z,62.91
2019-04-30T07:07:41.745Z,62.45
2019-04-30T07:10:21.178Z,62.23
2019-04-30T07:12:59.773Z,62.48
2019-04-30T07:15:29.554Z,62.01
2019-04-30T07:17:59.133Z,62.02
2019-04-30T07:20:29.109Z,61.77
2019-04-30T07:23:02.863Z,62.15
2019-04-30T07:25:29.331Z,61.75
2019-04-30T07:27:59.784Z,61.42
2019-04-30T07:30:30.651Z,62.17
2019-04-30T07:32:59.662Z,61.75
2019-04-30T07:35:29.224Z,61.99
2019-04-30T07:38:00.654Z,61.23
2019-04-30T07:40:29.253Z,60.95
2019-04-30T07:42:59.121Z,61.10
2019-04-30T07:45:31.574Z,60.67
2019-04-30T07:47:59.405Z,59.30
2019-04-30T07:50:30.607Z,60.12
2019-04-30T07:53:05.419Z,60.04
2019-04-30T07:55:29.541Z,59.48
2019-04-30T07:57:59.135Z,60.36
2019-04-30T08:00:30.986Z,60.79
2019-04-30T08:03:00.001Z,60.28
2019-04-30T08:05:32.783Z,60.48
2019-04-30T08:08:16.651Z,60.09
2019-04-30T08:10:31.391Z,58.42
2019-04-30T08:13:08.655Z,59.32
2019-04-30T08:15:29.986Z,58.69
2019-04-30T08:18:03.502Z,57.83
2019-04-30T08:20:29.575Z,57.52
2019-04-30T08:23:03.090Z,58.80
2019-04-30T08:25:29.045Z,59.88
2019-04-30T08:27:59.136Z,58.50
2019-04-30T08:30:29.904Z,57.87
2019-04-30T08:32:59.587Z,57.43
2019-04-30T08:35:29.669Z,54.51
2019-04-30T08:37:59.058Z,56.18
2019-04-30T08:40:29.599Z,54.82
2019-04-30T08:42:59.469Z,53.35
2019-04-30T08:45:31.467Z,49.97
2019-04-30T08:47:59.024Z,51.29
2019-04-30T08:50:29.714Z,51.70
2019-04-30T08:52:59.724Z,49.97
2019-04-30T08:55:30.337Z,51.07
2019-04-30T08:58:09.395Z,50.16
2019-04-30T09:00:29.752Z,51.09
2019-04-30T09:02:59.390Z,49.76
2019-04-30T09:05:35.565Z,46.85
2019-04-30T09:08:06.142Z,45.80
2019-04-30T09:10:34.545Z,44.46
2019-04-30T09:13:02.977Z,44.35
2019-04-30T09:15:31.422Z,45.27
2019-04-30T09:18:05.893Z,43.45
2019-04-30T09:20:30.002Z,43.16
2019-04-30T09:22:59.578Z,43.35
2019-04-30T09:25:28.680Z,42.59
2019-04-30T09:27:58.858Z,43.36
2019-04-30T09:30:27.486Z,42.02
2019-04-30T09:32:55.894Z,41.77
2019-04-30T09:35:24.300Z,41.61
2019-04-30T09:37:58.913Z,41.08
2019-04-30T09:40:22.884Z,39.92
2019-04-30T09:42:51.306Z,40.15
2019-04-30T09:45:19.860Z,38.72
2019-04-30T09:47:50.369Z,39.78
2019-04-30T09:50:18.925Z,40.12
2019-04-30T09:52:49.515Z,38.07
2019-04-30T09:55:19.249Z,37.91
2019-04-30T09:57:48.853Z,37.30
2019-04-30T10:00:19.395Z,36.86
2019-04-30T10:02:48.893Z,36.25
2019-04-30T10:05:19.279Z,34.82
2019-04-30T10:07:49.350Z,34.89
2019-04-30T10:10:20.178Z,35.16
2019-04-30T10:12:49.265Z,32.92
2019-04-30T10:15:31.652Z,32.92
2019-04-30T10:18:00.054Z,32.11
2019-04-30T10:20:43.092Z,29.60
2019-04-30T10:23:11.578Z,27.83
2019-04-30T10:25:40.086Z,28.36
2019-04-30T10:28:09.999Z,28.09
2019-04-30T10:30:38.738Z,28.44
2019-04-30T10:33:07.320Z,27.27
2019-04-30T10:35:35.826Z,28.68
2019-04-30T10:38:04.668Z,26.67
2019-04-30T10:40:33.206Z,27.44
2019-04-30T10:43:01.678Z,24.40
2019-04-30T10:45:30.672Z,24.84
2019-04-30T10:47:59.326Z,25.03
2019-04-30T10:50:27.744Z,24.10
2019-04-30T10:52:56.254Z,24.15
2019-04-30T10:55:24.774Z,23.40
2019-04-30T10:57:53.181Z,25.01
2019-04-30T11:00:24.632Z,24.59
2019-04-30T11:02:53.072Z,23.55
2019-04-30T11:05:21.572Z,22.39
2019-04-30T11:07:50.006Z,24.22
2019-04-30T11:10:18.973Z,23.23
2019-04-30T11:12:47.350Z,22.13
2019-04-30T11:15:15.916Z,23.50
2019-04-30T11:17:44.523Z,23.15
2019-04-30T11:20:13.551Z,21.45
2019-04-30T11:22:42.290Z,20.79
2019-04-30T11:25:11.667Z,20.60
2019-04-30T11:27:41.179Z,20.71
2019-04-30T11:30:20.724Z,19.93
2019-04-30T11:32:41.079Z,20.14
2019-04-30T11:35:09.830Z,22.34
2019-04-30T11:37:38.238Z,20.46
2019-04-30T11:40:07.806Z,21.20
2019-04-30T11:42:36.210Z,20.72
2019-04-30T11:45:08.606Z,23.43
2019-04-30T11:47:38.407Z,24.89
2019-04-30T11:50:09.957Z,26.84
2019-04-30T11:52:38.380Z,26.88
2019-04-30T11:55:09.510Z,26.95
2019-04-30T11:57:39.783Z,25.97
2019-04-30T12:00:13.457Z,27.50
2019-04-30T12:02:42.039Z,28.62
2019-04-30T12:05:11.625Z,27.98
2019-04-30T12:07:44.184Z,28.41
2019-04-30T12:10:20.770Z,28.72
2019-04-30T12:12:49.385Z,28.55
2019-04-30T12:15:19.217Z,28.69
2019-04-30T12:17:47.693Z,28.75
2019-04-30T12:20:16.568Z,30.31
2019-04-30T12:22:44.981Z,27.93
2019-04-30T12:25:13.669Z,28.78
2019-04-30T12:27:42.086Z,28.25
2019-04-30T12:30:11.199Z,29.52
2019-04-30T12:32:39.709Z,27.96
2019-04-30T12:35:09.930Z,26.14
2019-04-30T12:37:39.069Z,27.07
2019-04-30T12:40:09.499Z,27.53
2019-04-30T12:42:38.839Z,29.02
2019-04-30T12:45:09.454Z,27.85
2019-04-30T12:47:42.336Z,27.09
2019-04-30T12:50:29.200Z,27.90
2019-04-30T12:53:02.250Z,28.75
2019-04-30T12:55:49.020Z,28.93
2019-04-30T12:58:20.566Z,28.59
2019-04-30T13:00:49.154Z,27.50
2019-04-30T13:03:17.722Z,26.76
2019-04-30T13:05:46.469Z,27.03
2019-04-30T13:08:15.312Z,25.86
2019-04-30T13:10:44.920Z,26.31
2019-04-30T13:13:15.727Z,26.64
2019-04-30T13:15:44.382Z,24.59
2019-04-30T13:18:12.893Z,24.16
2019-04-30T13:20:41.459Z,24.49
2019-04-30T13:23:09.883Z,24.78
2019-04-30T13:25:50.344Z,25.08
2019-04-30T13:28:10.075Z,24.89
2019-04-30T13:30:39.991Z,24.53
2019-04-30T13:33:12.846Z,26.25
2019-04-30T13:35:41.243Z,26.98
2019-04-30T13:38:27.813Z,26.23
2019-04-30T13:41:00.269Z,26.18
2019-04-30T13:43:48.563Z,25.76
2019-04-30T13:46:18.475Z,26.87
2019-04-30T13:48:46.958Z,24.75
2019-04-30T13:51:15.348Z,26.32
2019-04-30T13:53:43.786Z,27.95
2019-04-30T13:56:12.312Z,26.46
2019-04-30T13:58:40.714Z,25.91
2019-04-30T14:01:09.127Z,27.02
2019-04-30T14:03:39.222Z,26.89
2019-04-30T14:06:09.768Z,27.43
2019-04-30T14:08:42.241Z,27.99
2019-04-30T14:11:10.654Z,28.69
2019-04-30T14:13:39.169Z,27.56
2019-04-30T14:16:07.709Z,27.72
2019-04-30T14:18:36.171Z,28.00
2019-04-30T14:21:04.778Z,28.54
2019-04-30T14:23:33.228Z,28.78
2019-04-30T14:26:01.639Z,29.21
2019-04-30T14:28:30.068Z,28.35
2019-04-30T14:30:58.552Z,27.57
2019-04-30T14:33:27.012Z,28.52
2019-04-30T14:35:55.435Z,27.92
2019-04-30T14:38:23.885Z,28.92
2019-04-30T14:40:53.098Z,28.08
2019-04-30T14:43:26.745Z,29.28
2019-04-30T14:46:06.563Z,29.38
2019-04-30T14:48:39.622Z,29.37
2019-04-30T14:51:06.923Z,28.74
2019-04-30T14:53:43.046Z,28.92
2019-04-30T14:56:19.636Z,29.94
2019-04-30T14:58:56.136Z,29.06
2019-04-30T15:01:38.199Z,29.69
2019-04-30T15:04:06.637Z,29.53
2019-04-30T15:06:35.041Z,29.54
2019-04-30T15:09:05.367Z,29.76
2019-04-30T15:11:34.186Z,30.59
2019-04-30T15:14:02.666Z,30.03
2019-04-30T15:16:31.096Z,29.97
2019-04-30T15:18:59.491Z,29.85
2019-04-30T15:21:27.947Z,30.50
2019-04-30T15:24:01.652Z,31.17
2019-04-30T15:26:30.295Z,30.58
2019-04-30T15:29:00.100Z,30.47
2019-04-30T15:31:30.833Z,30.19
2019-04-30T15:34:02.978Z,31.47
2019-04-30T15:36:31.101Z,30.63
2019-04-30T15:39:01.167Z,30.89
2019-04-30T15:41:30.546Z,30.57
2019-04-30T15:43:59.651Z,31.24
2019-04-30T15:46:28.126Z,31.68
2019-04-30T15:48:56.634Z,32.02
2019-04-30T15:51:25.061Z,31.87
2019-04-30T15:53:53.503Z,32.59
2019-04-30T15:56:33.900Z,31.37
2019-04-30T15:59:10.203Z,31.99
2019-04-30T16:01:40.379Z,32.22
2019-04-30T16:04:10.462Z,32.41
2019-04-30T16:06:38.872Z,32.45
2019-04-30T16:09:18.274Z,33.78
2019-04-30T16:12:05.423Z,33.34
2019-04-30T16:14:35.519Z,33.19
2019-04-30T16:17:11.390Z,33.49
2019-04-30T16:19:39.816Z,34.86
2019-04-30T16:22:11.008Z,35.24
2019-04-30T16:24:39.515Z,35.15
2019-04-30T16:27:09.266Z,35.31
2019-04-30T16:29:38.800Z,35.24
2019-04-30T16:32:09.302Z,35.45
2019-04-30T16:34:38.867Z,36.46
2019-04-30T16:37:07.424Z,38.08
2019-04-30T16:39:35.867Z,38.56
2019-04-30T16:42:04.413Z,37.83
2019-04-30T16:44:32.925Z,36.32
2019-04-30T16:47:12.944Z,37.79
2019-04-30T16:49:31.582Z,37.35
2019-04-30T16:52:01.567Z,37.92
2019-04-30T16:54:30.095Z,37.85
2019-04-30T16:57:06.909Z,36.38
2019-04-30T16:59:38.800Z,36.68
2019-04-30T17:02:09.362Z,37.32
2019-04-30T17:04:45.415Z,36.67
2019-04-30T17:07:24.753Z,35.62
2019-04-30T17:09:54.809Z,36.33
2019-04-30T17:12:24.927Z,37.12
2019-04-30T17:15:11.180Z,36.75
2019-04-30T17:17:40.468Z,37.71
2019-04-30T17:20:09.025Z,36.81
2019-04-30T17:22:39.364Z,36.14
2019-04-30T17:25:08.643Z,36.72
2019-04-30T17:27:39.136Z,37.34
2019-04-30T17:30:11.167Z,36.53
2019-04-30T17:32:39.582Z,35.81
2019-04-30T17:35:09.017Z,36.92
2019-04-30T17:37:37.686Z,36.80
2019-04-30T17:40:09.263Z,36.64
2019-04-30T17:42:37.575Z,36.73
2019-04-30T17:45:11.038Z,37.03
2019-04-30T17:47:39.543Z,37.21
2019-04-30T17:50:09.153Z,36.99
2019-04-30T17:52:37.602Z,37.09
2019-04-30T17:55:09.708Z,37.61
2019-04-30T17:57:40.072Z,37.73
2019-04-30T18:00:18.781Z,36.92
2019-04-30T18:02:40.854Z,37.46
2019-04-30T18:05:11.119Z,36.89
2019-04-30T18:07:39.571Z,36.73
2019-04-30T18:10:10.342Z,36.90
2019-04-30T18:12:39.244Z,37.05
2019-04-30T18:15:11.262Z,37.18
2019-04-30T18:17:39.776Z,37.25
2019-04-30T18:20:10.942Z,37.52
2019-04-30T18:22:41.265Z,38.00
2019-04-30T18:25:27.818Z,37.91
2019-04-30T18:27:59.519Z,37.61
2019-04-30T18:30:29.775Z,37.95
2019-04-30T18:32:58.519Z,39.13
2019-04-30T18:35:28.656Z,38.70
2019-04-30T18:37:58.563Z,38.70
2019-04-30T18:40:27.287Z,39.90
2019-04-30T18:42:55.785Z,38.55
2019-04-30T18:45:24.326Z,38.77
2019-04-30T18:47:52.855Z,39.78
2019-04-30T18:50:26.227Z,39.15
2019-04-30T18:52:58.615Z,39.48
2019-04-30T18:55:26.868Z,39.66
2019-04-30T18:57:56.881Z,40.88
2019-04-30T19:00:39.684Z,41.00
2019-04-30T19:03:08.672Z,41.20
2019-04-30T19:05:39.310Z,42.06
2019-04-30T19:08:09.865Z,41.56
2019-04-30T19:10:43.014Z,40.99
2019-04-30T19:13:29.844Z,42.08
2019-04-30T19:16:19.782Z,42.32
2019-04-30T19:18:49.376Z,42.77
2019-04-30T19:21:17.967Z,42.49
2019-04-30T19:23:46.381Z,42.64
2019-04-30T19:26:14.901Z,42.81
2019-04-30T19:28:43.433Z,43.04
2019-04-30T19:31:12.451Z,42.86
2019-04-30T19:33:40.866Z,42.52
2019-04-30T19:36:09.910Z,42.70
2019-04-30T19:38:38.433Z,42.84
2019-04-30T19:41:10.651Z,43.33
2019-04-30T19:43:37.169Z,43.27
2019-04-30T19:46:09.066Z,43.94
2019-04-30T19:48:37.631Z,44.04
2019-04-30T19:51:06.085Z,44.72
2019-04-30T19:53:34.495Z,44.29
2019-04-30T19:56:02.940Z,44.41
2019-04-30T19:58:48.145Z,45.05
2019-04-30T20:01:01.596Z,45.06
2019-04-30T20:03:30.087Z,45.58
2019-04-30T20:05:58.688Z,45.47
2019-04-30T20:08:28.714Z,45.93
2019-04-30T20:10:59.170Z,46.22
2019-04-30T20:13:33.899Z,46.60
2019-04-30T20:15:59.384Z,46.41
2019-04-30T20:18:29.241Z,46.43
2019-04-30T20:21:01.158Z,46.41
2019-04-30T20:23:29.667Z,46.72
2019-04-30T20:26:01.176Z,46.67
2019-04-30T20:28:38.986Z,46.32
2019-04-30T20:30:59.798Z,46.24
2019-04-30T20:33:28.994Z,46.35
2019-04-30T20:35:59.005Z,46.33
2019-04-30T20:38:32.155Z,46.74
2019-04-30T20:41:03.046Z,46.91
2019-04-30T20:43:30.757Z,47.07
2019-04-30T20:46:00.820Z,47.25
2019-04-30T20:48:30.045Z,47.03
2019-04-30T20:51:01.149Z,47.09
2019-04-30T20:53:28.697Z,47.16
2019-04-30T20:55:59.197Z,48.05
2019-04-30T20:58:27.359Z,47.66
2019-04-30T21:01:03.430Z,48.04
2019-04-30T21:03:26.125Z,47.87
2019-04-30T21:05:54.579Z,48.12
2019-04-30T21:08:23.066Z,47.95
2019-04-30T21:10:54.151Z,48.29
2019-04-30T21:13:22.616Z,48.95
2019-04-30T21:15:51.031Z,48.46
2019-04-30T21:18:19.635Z,48.41
2019-04-30T21:20:49.677Z,48.41
2019-04-30T21:23:19.427Z,48.33
2019-04-30T21:25:48.790Z,48.98
2019-04-30T21:28:19.524Z,49.65
2019-04-30T21:30:47.508Z,49.61
2019-04-30T21:33:19.317Z,49.83
2019-04-30T21:35:50.790Z,49.64
2019-04-30T21:38:19.574Z,49.56
2019-04-30T21:40:49.215Z,49.83
2019-04-30T21:43:17.749Z,50.09
2019-04-30T21:45:46.156Z,49.91
2019-04-30T21:48:14.602Z,50.02
2019-04-30T21:50:43.080Z,50.35
2019-04-30T21:53:11.525Z,50.50
2019-04-30T21:55:40.106Z,50.66
2019-04-30T21:58:09.615Z,50.57
2019-04-30T22:00:43.291Z,50.36
2019-04-30T22:03:11.771Z,50.51
2019-04-30T22:05:40.283Z,50.66
2019-04-30T22:08:09.195Z,50.66
2019-04-30T22:10:37.720Z,50.84
2019-04-30T22:13:06.129Z,50.92
2019-04-30T22:15:34.563Z,51.18
2019-04-30T22:18:03.278Z,51.34
2019-04-30T22:20:32.154Z,51.20
2019-04-30T22:23:00.602Z,51.26
2019-04-30T22:25:29.372Z,51.14
2019-04-30T22:27:57.898Z,51.48
2019-04-30T22:30:26.343Z,51.59
2019-04-30T22:32:54.793Z,51.70
2019-04-30T22:35:29.692Z,51.79
2019-04-30T22:37:59.817Z,52.22
2019-04-30T22:40:31.308Z,52.12
2019-04-30T22:42:59.347Z,51.67
2019-04-30T22:45:29.590Z,51.53
2019-04-30T22:47:58.913Z,51.52
2019-04-30T22:50:27.583Z,51.24
2019-04-30T22:52:56.175Z,51.16
2019-04-30T22:55:24.618Z,50.91
2019-04-30T22:57:53.065Z,50.70
2019-04-30T23:00:23.494Z,50.66
2019-04-30T23:02:53.610Z,50.62
2019-04-30T23:05:22.102Z,50.84
2019-04-30T23:07:50.625Z,50.90
2019-04-30T23:10:19.246Z,51.14
2019-04-30T23:12:47.652Z,50.88
2019-04-30T23:15:19.428Z,50.62
2019-04-30T23:17:47.893Z,50.72
2019-04-30T23:20:16.375Z,50.86
2019-04-30T23:22:44.786Z,51.03
2019-04-30T23:25:13.428Z,51.09
2019-04-30T23:27:41.970Z,51.07
2019-04-30T23:30:10.939Z,51.36
2019-04-30T23:32:39.367Z,51.05
2019-04-30T23:35:08.444Z,51.44
2019-04-30T23:37:36.876Z,51.63
2019-04-30T23:40:23.790Z,51.17
2019-04-30T23:42:53.889Z,51.49
2019-04-30T23:45:22.559Z,51.64
2019-04-30T23:47:51.077Z,51.42
2019-04-30T23:50:19.643Z,51.68
2019-04-30T23:52:48.138Z,51.89
2019-04-30T23:55:16.721Z,51.83
2019-04-30T23:57:45.189Z,51.53
